Time;durP1;ratioP1;P1;durP2;ratioP2;P2;SDS_P1;SDS_P2;PMS_P1;PMS_P2;Temp;Humidity;BMP_temperature;BMP_pressure;BME280_temperature;BME280_humidity;BME280_pressure;Samples;Min_cycle;Max_cycle;Signal;HPM_P1;HPM_P2
2021/07/24 00:01:09;;;;;;;6.63;3.20;;;;;;;17.34;100.00;96422.19;5132440;27;20191;-83
2021/07/24 00:03:37;;;;;;;6.47;3.97;;;;;;;17.47;100.00;96423.28;5132320;27;20199;-83
2021/07/24 00:06:06;;;;;;;3.40;2.77;;;;;;;17.31;100.00;96411.13;5132439;27;20230;-83
2021/07/24 00:08:34;;;;;;;4.87;3.60;;;;;;;17.44;100.00;96418.34;5132165;27;20248;-82
2021/07/24 00:11:03;;;;;;;3.53;3.00;;;;;;;17.52;100.00;96415.53;5132138;27;20191;-82
2021/07/24 00:13:30;;;;;;;4.00;3.70;;;;;;;17.41;100.00;96416.91;5132262;27;20205;-82
2021/07/24 00:15:57;;;;;;;3.97;3.67;;;;;;;17.41;100.00;96413.44;5132173;27;20702;-82
2021/07/24 00:18:25;;;;;;;6.93;3.10;;;;;;;17.13;100.00;96408.19;5131906;27;20194;-83
2021/07/24 00:20:52;;;;;;;5.83;3.70;;;;;;;17.31;100.00;96413.78;5132220;27;20215;-83
2021/07/24 00:23:21;;;;;;;5.67;3.97;;;;;;;17.28;100.00;96409.72;5133608;27;20186;-82
2021/07/24 00:25:48;;;;;;;4.20;3.30;;;;;;;17.37;100.00;96415.66;5136391;27;20201;-82
2021/07/24 00:28:15;;;;;;;5.73;3.13;;;;;;;17.33;100.00;96415.25;5135568;27;20191;-82
2021/07/24 00:30:43;;;;;;;4.07;3.27;;;;;;;17.43;100.00;96416.72;5135970;27;20286;-82
2021/07/24 00:33:11;;;;;;;5.73;3.17;;;;;;;17.30;100.00;96407.66;5134404;27;20186;-82
2021/07/24 00:35:39;;;;;;;3.57;3.27;;;;;;;17.16;100.00;96408.63;5134659;27;20241;-82
2021/07/24 00:38:07;;;;;;;3.10;2.90;;;;;;;16.95;100.00;96392.78;5135500;27;20663;-82
2021/07/24 00:40:42;;;;;;;4.73;3.30;;;;;;;16.81;100.00;96387.38;5135664;27;20225;-83
2021/07/24 00:43:11;;;;;;;5.37;3.67;;;;;;;16.78;100.00;96382.47;5135484;27;20183;-82
2021/07/24 00:45:46;;;;;;;4.23;3.30;;;;;;;17.01;100.00;96390.16;5135660;27;20679;-82
2021/07/24 00:48:19;;;;;;;3.47;3.17;;;;;;;16.89;100.00;96383.75;5135561;27;20600;-82
2021/07/24 00:50:48;;;;;;;3.50;3.13;;;;;;;16.79;100.00;96383.28;5135575;27;20190;-82
2021/07/24 00:53:21;;;;;;;6.80;3.17;;;;;;;16.71;100.00;96376.25;5135542;27;20191;-83
2021/07/24 00:55:50;;;;;;;3.60;3.00;;;;;;;16.82;100.00;96377.59;5135765;27;20182;-82
2021/07/24 00:58:25;;;;;;;4.93;3.03;;;;;;;16.58;100.00;96369.03;5135263;27;20278;-83
2021/07/24 01:00:52;;;;;;;3.47;3.17;;;;;;;16.58;100.00;96365.56;5135845;27;20254;-82
2021/07/24 01:03:20;;;;;;;4.77;2.73;;;;;;;16.65;100.00;96356.63;5135043;27;20198;-82
2021/07/24 01:05:51;;;;;;;3.40;3.10;;;;;;;16.63;100.00;96358.66;5135177;27;20202;-82
2021/07/24 01:08:19;;;;;;;4.57;3.47;;;;;;;16.49;100.00;96356.94;5135015;27;20187;-82
2021/07/24 01:10:47;;;;;;;5.60;3.27;;;;;;;16.57;100.00;96359.44;5135461;27;20626;-82
2021/07/24 01:13:17;;;;;;;4.67;3.17;;;;;;;16.38;100.00;96352.13;5134684;27;20241;-82
2021/07/24 01:15:46;;;;;;;3.10;2.90;;;;;;;16.40;100.00;96350.94;5134790;27;20733;-82
2021/07/24 01:18:14;;;;;;;8.77;4.10;;;;;;;16.34;100.00;96343.75;5134781;27;20199;-82
2021/07/24 01:20:42;;;;;;;7.23;4.23;;;;;;;16.41;100.00;96344.59;5135232;27;20265;-82
2021/07/24 01:23:12;;;;;;;4.23;3.80;;;;;;;16.33;100.00;96342.13;5134477;27;20191;-82
2021/07/24 01:25:44;;;;;;;4.70;2.97;;;;;;;16.48;100.00;96344.66;5134588;27;20555;-82
2021/07/24 01:28:12;;;;;;;4.57;3.60;;;;;;;16.34;100.00;96343.75;5134620;27;20202;-81
2021/07/24 01:30:40;;;;;;;6.23;4.00;;;;;;;16.21;100.00;96334.88;5134510;27;20190;-81
2021/07/24 01:33:09;;;;;;;3.97;3.00;;;;;;;16.28;100.00;96335.72;5134807;27;20198;-81
2021/07/24 01:35:37;;;;;;;8.20;3.33;;;;;;;16.26;100.00;96338.59;5135070;27;20576;-82
2021/07/24 01:38:08;;;;;;;5.57;3.43;;;;;;;16.35;100.00;96340.09;5134215;27;20202;-81
2021/07/24 01:40:39;;;;;;;3.57;3.27;;;;;;;16.26;100.00;96335.94;5134413;27;20209;-81
2021/07/24 01:43:07;;;;;;;4.27;3.87;;;;;;;16.17;100.00;96327.31;5134407;27;20236;-82
2021/07/24 01:45:35;;;;;;;3.93;3.50;;;;;;;16.22;100.00;96329.38;5134397;27;20198;-82
2021/07/24 01:48:04;;;;;;;4.57;3.90;;;;;;;15.95;100.00;96323.03;5134168;27;20210;-81
2021/07/24 01:53:18;;;;;;;4.67;3.83;;;;;;;16.21;100.00;96329.56;5134548;27;20687;-82
2021/07/24 01:55:51;;;;;;;6.50;4.13;;;;;;;16.23;100.00;96328.38;5134221;27;20198;-82
2021/07/24 01:58:24;;;;;;;4.70;4.20;;;;;;;16.22;100.00;96321.44;5134149;27;20183;-81
2021/07/24 02:00:52;;;;;;;5.40;4.00;;;;;;;15.96;100.00;96327.31;5133941;27;20627;-81
2021/07/24 02:03:24;;;;;;;4.13;3.67;;;;;;;15.91;100.00;96327.09;5134265;27;20198;-81
2021/07/24 02:05:51;;;;;;;4.30;3.90;;;;;;;16.00;100.00;96325.94;5134092;27;20247;-81
2021/07/24 02:08:21;;;;;;;7.13;4.47;;;;;;;16.03;100.00;96311.47;5133652;27;20259;-81
2021/07/24 02:10:51;;;;;;;5.97;3.53;;;;;;;16.01;100.00;96310.88;5133821;27;20260;-81
2021/07/24 02:13:20;;;;;;;3.53;3.10;;;;;;;15.93;100.00;96317.94;5133818;27;20269;-82
2021/07/24 02:15:48;;;;;;;5.20;3.93;;;;;;;16.00;100.00;96314.50;5133588;27;20261;-81
2021/07/24 02:18:18;;;;;;;3.80;3.50;;;;;;;16.20;100.00;96323.44;5133450;27;20233;-81
2021/07/24 02:20:46;;;;;;;4.60;3.57;;;;;;;16.18;100.00;96325.50;5133720;27;20206;-81
2021/07/24 02:23:14;;;;;;;3.90;3.60;;;;;;;16.25;100.00;96320.22;5134007;27;20248;-81
2021/07/24 02:25:41;;;;;;;4.33;3.83;;;;;;;16.16;100.00;96322.19;5133587;27;20238;-82
2021/07/24 02:28:10;;;;;;;4.37;3.97;;;;;;;15.99;100.00;96323.47;5133513;27;20279;-81
2021/07/24 02:30:37;;;;;;;4.17;3.67;;;;;;;16.09;100.00;96321.31;5133470;27;20257;-81
2021/07/24 02:33:05;;;;;;;5.67;5.13;;;;;;;16.06;100.00;96321.69;5133415;27;20297;-82
2021/07/24 02:35:32;;;;;;;5.83;4.40;;;;;;;16.05;100.00;96314.78;5133235;27;20245;-81
2021/07/24 02:38:00;;;;;;;6.20;4.50;;;;;;;15.98;100.00;96309.41;5133256;27;20189;-81
2021/07/24 02:40:27;;;;;;;5.13;4.63;;;;;;;16.07;100.00;96313.56;5133392;27;20237;-81
2021/07/24 02:42:55;;;;;;;5.20;4.70;;;;;;;16.03;100.00;96332.69;5133529;27;20263;-81
2021/07/24 02:45:23;;;;;;;4.80;4.30;;;;;;;15.67;100.00;96315.03;5133117;27;20602;-82
2021/07/24 02:47:51;;;;;;;7.67;4.83;;;;;;;15.75;100.00;96309.59;5133117;27;20250;-81
2021/07/24 02:50:18;;;;;;;4.60;4.20;;;;;;;15.82;100.00;96318.44;5133046;27;20274;-81
2021/07/24 02:52:46;;;;;;;6.70;4.67;;;;;;;15.86;100.00;96321.53;5132971;27;20193;-81
2021/07/24 02:55:13;;;;;;;6.57;4.33;;;;;;;15.98;100.00;96327.97;5133494;27;20252;-80
2021/07/24 02:57:40;;;;;;;9.60;4.70;;;;;;;15.85;100.00;96331.31;5132717;27;20766;-81
2021/07/24 03:00:09;;;;;;;4.23;3.93;;;;;;;16.02;100.00;96331.88;5133021;27;20233;-81
2021/07/24 03:02:38;;;;;;;5.47;3.80;;;;;;;16.06;100.00;96343.72;5132928;27;20230;-81
2021/07/24 03:05:06;;;;;;;5.53;4.67;;;;;;;16.07;100.00;96345.38;5133035;27;20245;-81
2021/07/24 03:07:33;;;;;;;5.37;4.60;;;;;;;16.09;100.00;96342.53;5132853;27;20198;-81
2021/07/24 03:10:00;;;;;;;4.70;4.30;;;;;;;16.00;100.00;96331.22;5133016;27;20280;-81
2021/07/24 03:12:28;;;;;;;6.73;4.57;;;;;;;15.80;100.00;96323.13;5132792;27;20237;-80
2021/07/24 03:14:56;;;;;;;5.30;4.43;;;;;;;15.66;100.00;96308.94;5129885;27;20229;-81
2021/07/24 03:17:24;;;;;;;5.10;4.60;;;;;;;15.72;100.00;96301.22;5132723;27;20286;-81
2021/07/24 03:19:52;;;;;;;9.17;4.50;;;;;;;15.71;100.00;96303.06;5132410;27;20262;-81
2021/07/24 03:22:19;;;;;;;7.00;5.50;;;;;;;15.68;100.00;96314.03;5132763;27;20205;-81
2021/07/24 03:24:47;;;;;;;4.33;3.90;;;;;;;15.66;100.00;96303.63;5132649;27;20190;-81
2021/07/24 03:27:18;;;;;;;5.73;3.97;;;;;;;15.78;100.00;96303.94;5132375;27;20206;-81
2021/07/24 03:29:45;;;;;;;7.47;4.63;;;;;;;15.81;100.00;96308.03;5132942;27;20676;-81
2021/07/24 03:32:12;;;;;;;4.73;4.33;;;;;;;15.77;100.00;96304.94;5132774;27;20285;-81
2021/07/24 03:34:39;;;;;;;5.40;4.70;;;;;;;15.69;100.00;96302.44;5132610;27;20661;-81
2021/07/24 03:37:08;;;;;;;8.83;5.07;;;;;;;15.65;100.00;96303.78;5132419;27;20237;-82
2021/07/24 03:39:35;;;;;;;6.17;4.80;;;;;;;15.69;100.00;96305.09;5132197;27;20241;-81
2021/07/24 03:42:02;;;;;;;5.37;4.83;;;;;;;15.60;100.00;96301.69;5132341;27;20205;-82
2021/07/24 03:44:30;;;;;;;5.13;4.73;;;;;;;15.64;100.00;96302.13;5132467;27;20190;-82
2021/07/24 03:46:58;;;;;;;5.03;4.50;;;;;;;15.63;100.00;96303.16;5116247;27;20211;-81
2021/07/24 03:49:25;;;;;;;4.63;4.23;;;;;;;15.74;100.00;96304.50;5112046;28;20207;-81
2021/07/24 03:51:52;;;;;;;6.27;5.67;;;;;;;15.74;100.00;96302.66;5111702;28;20232;-82
2021/07/24 03:54:21;;;;;;;7.97;5.37;;;;;;;15.66;100.00;96302.81;5111794;28;20211;-81
2021/07/24 03:56:48;;;;;;;9.17;5.37;;;;;;;15.87;100.00;96296.69;5111807;28;20573;-81
2021/07/24 03:59:15;;;;;;;6.00;4.70;;;;;;;15.76;100.00;96297.16;5114812;28;20203;-81
2021/07/24 04:01:44;;;;;;;5.90;4.43;;;;;;;15.61;100.00;96289.25;5115927;28;20285;-81
2021/07/24 04:04:13;;;;;;;8.57;4.43;;;;;;;15.76;100.00;96274.16;5115755;28;20249;-81
2021/07/24 04:06:41;;;;;;;5.77;4.23;;;;;;;15.71;100.00;96276.56;5115731;28;20203;-81
2021/07/24 04:09:08;;;;;;;4.90;4.33;;;;;;;15.74;100.00;96285.97;5115431;28;20599;-81
2021/07/24 04:11:37;;;;;;;5.13;4.37;;;;;;;15.74;100.00;96278.00;5115207;28;20219;-81
2021/07/24 04:14:07;;;;;;;5.13;4.53;;;;;;;15.73;100.00;96276.38;5115535;28;20257;-81
2021/07/24 04:16:34;;;;;;;7.90;5.20;;;;;;;15.78;100.00;96284.56;5120467;27;20226;-81
2021/07/24 04:19:02;;;;;;;9.17;8.10;;;;;;;15.95;100.00;96319.56;5115439;28;20203;-81
2021/07/24 04:21:29;;;;;;;9.67;8.73;;;;;;;16.13;100.00;96339.28;5115368;28;20197;-81
2021/07/24 04:23:57;;;;;;;10.53;9.53;;;;;;;16.29;100.00;96353.31;5115346;28;20198;-81
2021/07/24 04:26:25;;;;;;;10.53;8.17;;;;;;;16.46;100.00;96361.81;5115638;28;20231;-81
2021/07/24 04:28:54;;;;;;;10.10;9.10;;;;;;;16.60;100.00;96358.22;5115108;28;20252;-81
2021/07/24 04:31:21;;;;;;;10.13;9.13;;;;;;;16.67;100.00;96369.72;5115204;28;20257;-81
2021/07/24 04:33:49;;;;;;;13.67;9.17;;;;;;;16.73;100.00;96365.44;5114815;28;20242;-81
2021/07/24 04:36:16;;;;;;;10.70;9.07;;;;;;;16.82;100.00;96370.44;5115303;28;20203;-81
2021/07/24 04:38:43;;;;;;;11.43;8.20;;;;;;;16.89;100.00;96378.44;5115001;28;20199;-81
2021/07/24 04:41:16;;;;;;;10.70;8.50;;;;;;;16.94;100.00;96377.84;5114864;28;20191;-81
2021/07/24 04:43:44;;;;;;;9.80;8.87;;;;;;;16.99;100.00;96375.44;5114940;28;20241;-81
2021/07/24 04:46:13;;;;;;;11.40;9.17;;;;;;;17.08;100.00;96385.72;5115292;28;20198;-81
2021/07/24 04:48:40;;;;;;;10.30;9.30;;;;;;;17.14;100.00;96383.28;5115029;28;20191;-82
2021/07/24 04:51:08;;;;;;;11.83;8.53;;;;;;;17.18;100.00;96390.66;5114899;28;20276;-81
2021/07/24 04:53:37;;;;;;;9.13;8.17;;;;;;;17.32;100.00;96391.53;5114854;28;20226;-82
2021/07/24 04:56:07;;;;;;;9.53;8.60;;;;;;;17.34;100.00;96390.31;5115143;28;20196;-82
2021/07/24 04:58:35;;;;;;;10.33;8.53;;;;;;;17.42;100.00;96386.66;5114534;28;20191;-81
2021/07/24 05:01:03;;;;;;;13.57;9.30;;;;;;;17.54;100.00;96395.72;5114787;28;20279;-81
2021/07/24 05:03:33;;;;;;;8.47;7.60;;;;;;;17.59;100.00;96397.75;5114225;28;20200;-81
2021/07/24 05:06:01;;;;;;;7.03;6.43;;;;;;;17.67;100.00;96397.59;5114682;28;20179;-81
2021/07/24 05:08:29;;;;;;;8.67;7.53;;;;;;;17.76;100.00;96399.06;5114075;28;20580;-81
2021/07/24 05:10:56;;;;;;;6.93;6.33;;;;;;;17.84;100.00;96403.41;5114451;28;20240;-81
2021/07/24 05:13:23;;;;;;;9.10;7.23;;;;;;;17.90;100.00;96404.44;5114272;28;20230;-81
2021/07/24 05:15:52;;;;;;;8.80;7.67;;;;;;;17.97;100.00;96406.06;5114408;28;20264;-81
2021/07/24 05:18:19;;;;;;;6.77;6.13;;;;;;;18.00;100.00;96407.53;5114185;28;20202;-81
2021/07/24 05:20:48;;;;;;;9.97;6.67;;;;;;;18.10;100.00;96410.59;5114088;28;20191;-81
2021/07/24 05:23:15;;;;;;;8.43;6.27;;;;;;;18.15;100.00;96418.81;5114195;28;20233;-80
2021/07/24 05:25:43;;;;;;;8.90;6.67;;;;;;;18.24;100.00;96412.25;5114312;28;20199;-82
2021/07/24 05:28:11;;;;;;;9.03;5.80;;;;;;;18.33;100.00;96420.06;5114098;28;20242;-81
2021/07/24 05:30:39;;;;;;;6.20;5.60;;;;;;;18.39;100.00;96424.56;5114123;28;20259;-81
2021/07/24 05:33:06;;;;;;;9.13;6.87;;;;;;;18.47;100.00;96419.03;5114034;28;20295;-79
2021/07/24 05:35:33;;;;;;;9.33;5.27;;;;;;;18.50;100.00;96423.97;5114341;28;20256;-79
2021/07/24 05:38:02;;;;;;;7.60;6.23;;;;;;;18.61;100.00;96420.69;5124650;27;20278;-79
2021/07/24 05:40:29;;;;;;;5.80;5.23;;;;;;;18.77;100.00;96428.28;5127715;27;20202;-79
2021/07/24 05:43:01;;;;;;;6.53;5.87;;;;;;;19.00;100.00;96435.81;5134194;27;20289;-79
2021/07/24 05:45:28;;;;;;;7.87;5.73;;;;;;;19.06;100.00;96431.53;5134369;27;20199;-79
2021/07/24 05:47:55;;;;;;;12.50;6.30;;;;;;;19.09;100.00;96444.44;5133968;27;20278;-79
2021/07/24 05:50:23;;;;;;;8.03;5.50;;;;;;;19.10;100.00;96435.41;5133725;27;20234;-79
2021/07/24 05:52:50;;;;;;;8.13;5.50;;;;;;;19.18;100.00;96440.50;5133957;27;20222;-80
2021/07/24 05:55:19;;;;;;;9.43;6.40;;;;;;;19.38;100.00;96434.31;5134058;27;20203;-79
2021/07/24 05:57:46;;;;;;;16.30;6.37;;;;;;;19.66;100.00;96447.38;5134081;27;20642;-80
2021/07/24 06:00:14;;;;;;;8.70;6.07;;;;;;;19.84;100.00;96450.16;5133497;27;20285;-80
2021/07/24 06:02:41;;;;;;;14.47;6.03;;;;;;;20.03;100.00;96447.63;5133774;27;20222;-80
2021/07/24 06:05:10;;;;;;;5.90;5.40;;;;;;;20.24;100.00;96457.16;5133821;27;20242;-80
2021/07/24 06:07:37;;;;;;;5.03;4.53;;;;;;;20.37;100.00;96460.53;5133321;27;20195;-80
2021/07/24 06:10:05;;;;;;;5.93;4.87;;;;;;;20.49;100.00;96460.66;5133593;27;20548;-81
2021/07/24 06:12:34;;;;;;;6.13;5.50;;;;;;;20.60;100.00;96457.31;5133298;27;20222;-80
2021/07/24 06:15:01;;;;;;;13.77;5.87;;;;;;;20.74;100.00;96458.03;5133417;27;20321;-81
2021/07/24 06:17:29;;;;;;;59.70;10.37;;;;;;;21.04;100.00;96458.19;5133332;27;20682;-80
2021/07/24 06:19:56;;;;;;;7.97;4.90;;;;;;;21.20;100.00;96467.50;5133506;27;20315;-80
2021/07/24 06:22:23;;;;;;;63.60;12.67;;;;;;;21.41;100.00;96470.84;5132542;27;20237;-81
2021/07/24 06:24:50;;;;;;;4.80;4.17;;;;;;;21.44;100.00;96476.56;5133496;27;20287;-80
2021/07/24 06:27:18;;;;;;;5.77;4.53;;;;;;;21.76;100.00;96473.72;5133403;27;20277;-81
2021/07/24 06:29:47;;;;;;;4.33;3.93;;;;;;;22.07;100.00;96467.38;5133414;27;20194;-80
2021/07/24 06:32:14;;;;;;;6.90;4.60;;;;;;;22.42;100.00;96466.72;5132769;27;20271;-80
2021/07/24 06:34:41;;;;;;;6.17;3.77;;;;;;;22.50;100.00;96466.38;5133403;27;20237;-80
2021/07/24 06:37:09;;;;;;;5.13;4.20;;;;;;;22.71;100.00;96465.03;5132993;27;20194;-81
2021/07/24 06:39:36;;;;;;;4.47;3.37;;;;;;;22.88;100.00;96471.34;5133324;27;20610;-81
2021/07/24 06:42:04;;;;;;;5.17;4.03;;;;;;;23.21;100.00;96478.06;5133154;27;20277;-81
2021/07/24 06:44:31;;;;;;;6.07;3.57;;;;;;;23.26;100.00;96480.84;5133158;27;20650;-81
2021/07/24 06:47:00;;;;;;;3.80;3.33;;;;;;;23.47;100.00;96482.91;5132933;27;20237;-80
2021/07/24 06:49:27;;;;;;;5.13;3.43;;;;;;;23.61;100.00;96488.03;5132191;27;20191;-80
2021/07/24 06:51:54;;;;;;;4.97;3.10;;;;;;;23.77;100.00;96495.41;5127943;27;20221;-81
2021/07/24 06:54:21;;;;;;;5.70;3.13;;;;;;;24.09;100.00;96492.28;5130607;27;20201;-81
2021/07/24 06:56:49;;;;;;;5.43;3.00;;;;;;;24.07;100.00;96494.38;5131443;27;20285;-81
2021/07/24 06:59:16;;;;;;;4.23;3.20;;;;;;;24.24;100.00;96495.25;5131240;27;20233;-81
2021/07/24 07:01:43;;;;;;;6.13;3.50;;;;;;;24.37;100.00;96505.69;5132952;27;20194;-81
2021/07/24 07:04:12;;;;;;;5.20;3.03;;;;;;;24.50;100.00;96499.25;5132457;27;20205;-81
2021/07/24 07:06:41;;;;;;;4.93;3.80;;;;;;;24.69;100.00;96502.53;5132800;27;20199;-81
2021/07/24 07:09:09;;;;;;;5.77;3.73;;;;;;;24.90;100.00;96501.84;5133047;27;20194;-81
2021/07/24 07:11:36;;;;;;;8.97;4.30;;;;;;;24.44;100.00;96500.22;5132839;27;20226;-81
2021/07/24 07:14:04;;;;;;;7.57;3.70;;;;;;;24.66;100.00;96497.66;5132380;27;20285;-81
2021/07/24 07:16:31;;;;;;;8.67;3.73;;;;;;;24.93;100.00;96489.78;5132760;27;20675;-81
2021/07/24 07:18:58;;;;;;;7.70;3.90;;;;;;;24.89;100.00;96497.50;5132994;27;20616;-83
2021/07/24 07:21:27;;;;;;;4.93;4.43;;;;;;;25.24;100.00;96498.34;5132708;27;20191;-80
2021/07/24 07:23:55;;;;;;;4.20;3.80;;;;;;;25.19;100.00;96499.09;5132092;27;20191;-82
2021/07/24 07:26:25;;;;;;;3.90;3.50;;;;;;;25.31;100.00;96510.56;5132542;27;20285;-81
2021/07/24 07:28:54;;;;;;;3.10;2.90;;;;;;;25.17;100.00;96517.34;5132480;27;20206;-81
2021/07/24 07:31:21;;;;;;;5.73;4.17;;;;;;;25.72;100.00;96505.78;5132530;27;20218;-82
2021/07/24 07:33:49;;;;;;;4.97;3.70;;;;;;;25.89;100.00;96507.66;5136331;27;20198;-82
2021/07/24 07:36:16;;;;;;;4.00;2.97;;;;;;;26.00;100.00;96501.31;5136837;27;20655;-82
2021/07/24 07:38:45;;;;;;;9.13;3.60;;;;;;;25.97;100.00;96515.28;5137016;27;20217;-83
2021/07/24 07:41:12;;;;;;;4.65;3.83;;;;;;;25.97;100.00;96504.50;5136633;27;20727;-82
2021/07/24 07:43:40;;;;;;;6.00;3.77;;;;;;;26.03;100.00;96512.41;5136489;27;20232;-82
2021/07/24 07:46:07;;;;;;;5.85;3.80;;;;;;;26.15;100.00;96497.97;5136440;27;20321;-82
2021/07/24 07:48:35;;;;;;;7.83;3.60;;;;;;;26.08;100.00;96506.25;5136623;27;20255;-82
2021/07/24 07:51:03;;;;;;;3.40;3.10;;;;;;;26.47;100.00;96506.19;5136890;27;20225;-82
2021/07/24 07:53:30;;;;;;;4.85;3.08;;;;;;;26.43;100.00;96505.84;5136153;27;20251;-82
2021/07/24 07:55:59;;;;;;;5.03;3.85;;;;;;;26.58;100.00;96505.22;5136566;27;20281;-82
2021/07/24 07:58:26;;;;;;;5.20;3.50;;;;;;;26.65;100.00;96508.53;5136180;27;20198;-82
2021/07/24 08:00:54;;;;;;;3.88;3.45;;;;;;;26.82;100.00;96504.91;5136392;27;20290;-83
2021/07/24 08:03:24;;;;;;;4.00;3.28;;;;;;;26.73;100.00;96499.16;5135898;27;20259;-82
2021/07/24 08:05:52;;;;;;;6.38;3.70;;;;;;;26.36;100.00;96509.78;5136285;27;20195;-82
2021/07/24 08:08:19;;;;;;;3.85;3.50;;;;;;;26.62;100.00;96514.44;5136052;27;20195;-82
2021/07/24 08:10:46;;;;;;;4.20;3.60;;;;;;;26.24;100.00;96505.38;5136542;27;20222;-82
2021/07/24 08:13:17;;;;;;;5.30;3.37;;;;;;;26.33;100.00;96494.97;5135963;27;20305;-82
2021/07/24 08:15:45;;;;;;;5.10;3.83;;;;;;;26.86;100.00;96500.63;5136138;27;20226;-82
2021/07/24 08:18:12;;;;;;;3.38;3.08;;;;;;;26.64;100.00;96506.09;5135895;27;20195;-82
2021/07/24 08:20:40;;;;;;;5.85;3.13;;;;;;;26.74;100.00;96506.16;5136047;27;20244;-82
2021/07/24 08:23:08;;;;;;;4.53;4.22;;;;;;;26.67;100.00;96508.25;5135521;27;20203;-82
2021/07/24 08:25:35;;;;;;;5.40;3.30;;;;;;;26.72;100.00;96498.34;5136111;27;20694;-83
2021/07/24 08:28:03;;;;;;;4.28;3.35;;;;;;;26.46;100.00;96507.22;5135465;27;20742;-83
2021/07/24 08:30:33;;;;;;;7.55;3.97;;;;;;;26.68;100.00;96502.63;5136133;27;20194;-82
2021/07/24 08:33:01;;;;;;;3.40;2.95;;;;;;;26.47;100.00;96506.19;5135536;27;20264;-85
2021/07/24 08:35:28;;;;;;;5.40;3.92;;;;;;;26.08;100.00;96498.16;5133163;27;20259;-85
2021/07/24 08:37:55;;;;;;;4.53;3.42;;;;;;;26.67;100.00;96502.88;5135492;27;20197;-84
2021/07/24 08:40:23;;;;;;;3.40;3.10;;;;;;;26.73;100.00;96505.34;5135660;27;20252;-84
2021/07/24 08:42:50;;;;;;;4.22;3.55;;;;;;;26.74;100.00;96500.78;5135400;27;20678;-84
2021/07/24 08:45:19;;;;;;;6.43;4.38;;;;;;;26.22;100.00;96507.53;5134583;27;20201;-84
2021/07/24 08:47:48;;;;;;;4.45;3.55;;;;;;;25.73;100.00;96510.09;5135142;27;20197;-85
2021/07/24 08:50:17;;;;;;;4.28;3.58;;;;;;;25.56;100.00;96499.38;5135296;27;20687;-83
2021/07/24 08:52:53;;;;;;;4.63;3.63;;;;;;;25.36;100.00;96510.66;5135228;27;20313;-82
2021/07/24 08:55:23;;;;;;;3.90;3.60;;;;;;;25.66;100.00;96501.38;5135272;27;20179;-83
2021/07/24 08:57:53;;;;;;;3.63;3.33;;;;;;;25.54;100.00;96506.06;5135304;27;20183;-84
2021/07/24 09:00:22;;;;;;;5.63;3.72;;;;;;;25.70;100.00;96501.69;5135221;27;20663;-83
2021/07/24 09:02:53;;;;;;;4.05;3.65;;;;;;;25.79;100.00;96500.22;5135414;27;20695;-84
2021/07/24 09:05:21;;;;;;;4.53;3.40;;;;;;;26.08;100.00;96498.16;5135635;27;20190;-82
2021/07/24 09:07:50;;;;;;;4.88;3.80;;;;;;;25.72;100.00;96497.69;5135617;27;20200;-81
2021/07/24 09:10:19;;;;;;;4.65;3.80;;;;;;;25.46;100.00;96501.94;5136128;27;20190;-87
2021/07/24 09:12:48;;;;;;;5.65;3.78;;;;;;;25.34;100.00;96490.44;5136468;27;20225;-83
2021/07/24 09:15:18;;;;;;;5.57;4.13;;;;;;;26.16;100.00;96486.16;5135407;27;20309;-82
2021/07/24 09:17:46;;;;;;;3.35;2.92;;;;;;;26.56;100.00;96496.56;5134920;27;20231;-81
2021/07/24 09:20:17;;;;;;;7.40;3.35;;;;;;;26.48;100.00;96491.66;5135159;27;20191;-81
2021/07/24 09:22:45;;;;;;;4.93;3.25;;;;;;;26.21;100.00;96489.72;5134813;27;20676;-80
2021/07/24 09:25:14;;;;;;;4.47;4.10;;;;;;;25.86;100.00;96495.50;5135053;27;20191;-81
2021/07/24 09:27:43;;;;;;;4.15;3.75;;;;;;;26.00;100.00;96488.66;5135252;27;20201;-81
2021/07/24 09:30:29;;;;;;;4.07;3.53;;;;;;;25.81;100.00;96481.97;5135589;27;20194;-80
2021/07/24 09:33:03;;;;;;;7.90;3.45;;;;;;;25.99;100.00;96478.16;5135618;27;20289;-81
2021/07/24 09:35:37;;;;;;;3.58;3.28;;;;;;;26.22;100.00;96483.28;5134367;27;20288;-81
2021/07/24 09:38:05;;;;;;;4.45;3.13;;;;;;;26.46;100.00;96482.97;5134685;27;20554;-83
2021/07/24 09:40:35;;;;;;;6.68;3.63;;;;;;;26.84;100.00;96483.88;5134407;27;20199;-83
2021/07/24 09:43:02;;;;;;;4.28;3.88;;;;;;;26.43;100.00;96483.47;5134183;27;20289;-82
2021/07/24 09:45:29;;;;;;;6.55;3.75;;;;;;;26.41;100.00;96482.91;5134492;27;20234;-83
2021/07/24 09:48:13;;;;;;;4.00;3.65;;;;;;;26.00;100.00;96474.38;5134250;27;20573;-84
2021/07/24 09:50:48;;;;;;;4.70;3.67;;;;;;;25.47;100.00;96482.03;5134339;27;20183;-85
2021/07/24 09:53:15;;;;;;;5.40;3.30;;;;;;;25.92;100.00;96478.34;5133798;27;20262;-84
2021/07/24 09:55:48;;;;;;;5.40;3.63;;;;;;;26.71;100.00;96468.97;5132649;27;20220;-85
2021/07/24 09:58:21;;;;;;;4.65;3.42;;;;;;;27.20;100.00;96487.72;5134243;27;20684;-85
2021/07/24 10:00:48;;;;;;;3.67;3.20;;;;;;;27.51;100.00;96477.94;5134094;27;20191;-85
2021/07/24 10:03:17;;;;;;;3.72;3.42;;;;;;;27.41;100.00;96472.47;5133920;27;20622;-84
2021/07/24 10:05:46;;;;;;;3.80;3.50;;;;;;;27.38;100.00;96481.09;5133610;27;20577;-85
2021/07/24 10:08:15;;;;;;;4.03;3.72;;;;;;;27.62;100.00;96473.41;5134248;27;20195;-86
2021/07/24 10:10:44;;;;;;;4.95;3.60;;;;;;;27.96;100.00;96473.88;5133818;27;20209;-84
2021/07/24 10:13:14;;;;;;;5.38;4.50;;;;;;;27.83;100.00;96471.66;5133221;27;20712;-85
2021/07/24 10:15:43;;;;;;;4.20;3.22;;;;;;;28.14;100.00;96481.50;5133276;27;20321;-83
2021/07/24 10:18:12;;;;;;;4.47;3.92;;;;;;;27.65;100.00;96478.28;5133450;27;20222;-85
2021/07/24 10:20:41;;;;;;;3.85;3.53;;;;;;;27.23;100.00;96468.31;5133462;27;20194;-85
2021/07/24 10:23:10;;;;;;;6.80;3.88;;;;;;;27.32;100.00;96469.44;5133643;27;20203;-85
2021/07/24 10:25:48;;;;;;;4.30;3.95;;;;;;;27.69;100.00;96472.09;5133408;27;20667;-87
2021/07/24 10:28:19;;;;;;;3.83;3.47;;;;;;;27.88;100.00;96467.06;5134093;27;20183;-86
2021/07/24 10:30:48;;;;;;;3.45;3.15;;;;;;;28.12;100.00;96463.91;5139469;27;20187;-87
2021/07/24 10:33:17;;;;;;;3.70;3.40;;;;;;;27.57;100.00;96470.66;5135646;27;20221;-86
2021/07/24 10:35:44;;;;;;;4.60;3.53;;;;;;;27.09;100.00;96472.47;5133669;27;20301;-86
2021/07/24 10:38:34;;;;;;;4.63;3.45;;;;;;;27.07;100.00;96470.06;5133231;27;20195;-84
2021/07/24 10:41:35;;;;;;;5.53;3.70;;;;;;;26.71;100.00;96463.56;5133576;27;20220;-83
2021/07/24 10:44:04;;;;;;;3.90;3.53;;;;;;;27.34;100.00;96463.78;5132962;27;20194;-84
2021/07/24 10:47:11;;;;;;;3.58;3.28;;;;;;;28.03;100.00;96460.13;5133241;27;20191;-84
2021/07/24 10:50:01;;;;;;;4.97;3.60;;;;;;;28.00;100.00;96458.75;5133628;27;20187;-83
2021/07/24 10:53:14;;;;;;;4.32;3.85;;;;;;;27.33;100.00;96454.06;5132899;27;20223;-84
2021/07/24 10:55:50;;;;;;;4.18;3.83;;;;;;;27.56;100.00;96452.84;5133371;27;20198;-83
2021/07/24 10:58:23;;;;;;;5.60;3.55;;;;;;;27.55;100.00;96445.81;5133355;27;20269;-84
2021/07/24 11:00:54;;;;;;;6.30;3.38;;;;;;;27.78;100.00;96455.41;5133047;27;20190;-84
2021/07/24 11:03:39;;;;;;;7.72;4.07;;;;;;;27.49;100.00;96459.28;5132548;27;20185;-83
2021/07/24 11:06:23;;;;;;;5.78;3.75;;;;;;;27.01;100.00;96444.91;5132850;27;20241;-84
2021/07/24 11:09:09;;;;;;;4.50;3.72;;;;;;;26.78;100.00;96454.19;5132884;27;20236;-84
2021/07/24 11:11:43;;;;;;;5.82;3.60;;;;;;;27.49;100.00;96453.06;5130493;27;20561;-85
2021/07/24 11:14:46;;;;;;;5.43;3.58;;;;;;;27.78;100.00;96452.69;5132982;27;20198;-87
2021/07/24 11:17:14;;;;;;;4.57;3.90;;;;;;;27.63;100.00;96461.53;5133296;27;21042;-87
2021/07/24 11:19:44;;;;;;;4.20;3.78;;;;;;;28.12;100.00;96455.81;5132981;27;20191;-86
2021/07/24 11:22:13;;;;;;;5.28;3.95;;;;;;;28.33;100.00;96449.38;5132879;27;20259;-86
2021/07/24 11:24:42;;;;;;;3.90;3.60;;;;;;;28.58;100.00;96454.06;5133170;27;20636;-85
2021/07/24 11:27:11;;;;;;;3.75;3.45;;;;;;;28.73;100.00;96449.72;5132912;27;20585;-86
2021/07/24 11:29:41;;;;;;;5.10;4.32;;;;;;;28.49;100.00;96444.03;5132428;27;20293;-86
2021/07/24 11:32:09;;;;;;;3.63;3.33;;;;;;;28.70;100.00;96447.56;5132747;27;20190;-83
2021/07/24 11:34:37;;;;;;;4.30;3.65;;;;;;;28.61;100.00;96444.56;5133240;27;20312;-87
2021/07/24 11:37:05;;;;;;;4.38;3.53;;;;;;;28.88;100.00;96450.53;5132485;27;20219;-86